TimeAKDT,TemperatureF,Dew PointF,Humidity,Sea Level PressureIn,VisibilityMPH,Wind Direction,Wind SpeedMPH,Gust SpeedMPH,PrecipitationIn,Events,Conditions,WindDirDegrees,DateUTC
12:53 AM,39.0,37.0,93,29.58,10.0,Calm,Calm,-,N/A,,Scattered Clouds,0,2012-11-03 08:53:00
1:53 AM,39.0,37.0,93,29.58,10.0,Calm,Calm,-,N/A,,Clear,0,2012-11-03 09:53:00
2:53 AM,37.9,37.0,97,29.57,10.0,Variable,3.5,-,N/A,,Partly Cloudy,0,2012-11-03 10:53:00
3:53 AM,39.9,37.9,93,29.55,10.0,North,3.5,-,N/A,,Overcast,10,2012-11-03 11:53:00
4:53 AM,42.1,39.9,92,29.53,10.0,Calm,Calm,-,0.02,Rain,Light Rain,0,2012-11-03 12:53:00
5:53 AM,42.1,41.0,96,29.53,6.0,Calm,Calm,-,0.04,Rain,Light Rain,0,2012-11-03 13:53:00
6:15 AM,42.8,41.0,93,29.53,3.0,Calm,Calm,-,0.03,Rain,Rain,0,2012-11-03 14:15:00
6:53 AM,43.0,41.0,93,29.53,5.0,Variable,3.5,-,0.11,Rain,Rain,0,2012-11-03 14:53:00
7:51 AM,42.8,41.0,93,29.53,8.0,Calm,Calm,-,0.06,Rain,Light Rain,0,2012-11-03 15:51:00
7:53 AM,43.0,41.0,93,29.53,7.0,Calm,Calm,-,0.06,Rain,Light Rain,0,2012-11-03 15:53:00
8:53 AM,43.0,41.0,93,29.53,10.0,Calm,Calm,-,0.01,,Overcast,0,2012-11-03 16:53:00
9:53 AM,45.0,41.0,86,29.55,10.0,Calm,Calm,-,N/A,,Overcast,0,2012-11-03 17:53:00
10:53 AM,45.0,42.1,90,29.56,5.0,Variable,5.8,-,0.02,Rain,Light Rain,0,2012-11-03 18:53:00
11:39 AM,46.4,42.8,87,29.56,10.0,Variable,4.6,-,0.00,,Overcast,0,2012-11-03 19:39:00
11:53 AM,46.9,43.0,86,29.57,10.0,Variable,3.5,-,0.00,,Overcast,0,2012-11-03 19:53:00
12:36 PM,44.6,41.0,87,29.58,4.0,SSW,10.4,18.4,0.03,Rain,Rain,210,2012-11-03 20:36:00
12:53 PM,46.0,41.0,83,29.59,10.0,South,10.4,18.4,0.04,Rain,Light Rain,170,2012-11-03 20:53:00
1:02 PM,46.4,42.8,87,29.59,10.0,South,5.8,18.4,N/A,,Mostly Cloudy,190,2012-11-03 21:02:00
1:53 PM,46.9,41.0,80,29.61,10.0,South,8.1,-,0.00,,Scattered Clouds,180,2012-11-03 21:53:00
2:53 PM,46.0,41.0,83,29.63,9.0,South,8.1,-,0.00,Rain,Light Rain,190,2012-11-03 22:53:00
3:53 PM,46.0,39.9,79,29.63,10.0,Variable,4.6,-,0.01,Rain,Light Rain,0,2012-11-03 23:53:00
4:53 PM,46.9,39.0,74,29.64,10.0,South,8.1,-,0.00,,Mostly Cloudy,170,2012-11-04 00:53:00
5:53 PM,46.0,39.0,76,29.65,10.0,SSE,8.1,-,N/A,,Overcast,160,2012-11-04 01:53:00
6:53 PM,46.0,39.9,79,29.68,10.0,SSW,8.1,-,0.01,Rain,Light Rain,200,2012-11-04 02:53:00
7:12 PM,46.4,39.2,76,29.67,10.0,Variable,4.6,-,0.00,Rain,Light Rain,0,2012-11-04 03:12:00
7:45 PM,46.4,41.0,81,29.67,10.0,Variable,4.6,-,0.00,Rain,Light Rain,0,2012-11-04 03:45:00
7:53 PM,46.0,41.0,83,29.68,10.0,Variable,5.8,-,0.01,Rain,Light Rain,0,2012-11-04 03:53:00
8:53 PM,45.0,41.0,86,29.69,10.0,Variable,5.8,-,0.02,Rain,Light Rain,0,2012-11-04 04:53:00
9:53 PM,46.0,41.0,83,29.71,10.0,Variable,5.8,17.3,0.01,Rain,Light Rain,0,2012-11-04 05:53:00
10:53 PM,45.0,42.1,90,29.71,10.0,Variable,4.6,-,0.02,Rain,Light Rain,0,2012-11-04 06:53:00
11:53 PM,44.1,42.1,93,29.72,8.0,Calm,Calm,-,0.00,Rain,Light Rain,0,2012-11-04 07:53:00